| time (UTC) | temp C | wind direction | speed KPH | gust KPH | rain 1hr cm | rain 24hr cm | rain mn cm | humidity % | barometer mb |
| 20260507093718 | 10 | 353 | 1.6 | 6.4 | 0.28 | 1.78 | 0.33 | 91 | 1014.3 |
| 20260507093003 | 10 | 347 | 1.6 | 6.4 | 0.28 | 1.75 | 0.30 | 92 | 1014.3 |
| 20260507092503 | 10 | 346 | 1.6 | 4.8 | 0.25 | 1.73 | 0.28 | 93 | 1014.2 |
| 20260507092003 | 10 | 336 | 1.6 | 4.8 | 0.23 | 1.70 | 0.25 | 92 | 1014.0 |
| 20260507091503 | 10 | 325 | 1.6 | 4.8 | 0.20 | 1.68 | 0.23 | 92 | 1014.2 |
| 20260507091003 | 10 | 337 | 1.6 | 6.4 | 0.15 | 1.63 | 0.18 | 91 | 1014.0 |
| 20260507090503 | 10 | 349 | 1.6 | 4.8 | 0.15 | 1.60 | 0.15 | 90 | 1014.2 |
| 20260507090004 | 10 | 357 | 3.2 | 4.8 | 0.10 | 1.55 | 0.10 | 89 | 1013.9 |
| 20260507085503 | 10 | 11 | 1.6 | 4.8 | 0.08 | 1.52 | 0.08 | 90 | 1013.8 |
| 20260507085003 | 10 | 19 | 1.6 | 4.8 | 0.08 | 1.52 | 0.08 | 90 | 1013.7 |
| 20260507084503 | 10 | 23 | 3.2 | 6.4 | 0.08 | 1.52 | 0.08 | 90 | 1013.8 |
| 20260507084003 | 10 | 22 | 3.2 | 6.4 | 0.05 | 1.50 | 0.05 | 89 | 1013.6 |
| 20260507083503 | 10 | 15 | 3.2 | 8.0 | 0.03 | 1.47 | 0.03 | 89 | 1013.6 |
| 20260507083003 | 10 | 25 | 3.2 | 8.0 | 0.03 | 1.47 | 0.03 | 87 | 1013.5 |
| 20260507082717 | 10 | 39 | 3.2 | 8.0 | 0.03 | 1.47 | 0.03 | 88 | 1013.5 |
| 20260507082003 | 10 | 42 | 3.2 | 9.7 | 0.03 | 1.47 | 0.03 | 87 | 1013.5 |
| 20260507081503 | 10 | 32 | 1.6 | 4.8 | 0.03 | 1.47 | 0.03 | 87 | 1013.2 |
| 20260507081003 | 10 | 30 | 3.2 | 8.0 | 0.03 | 1.47 | 0.03 | 87 | 1013.1 |
| 20260507080503 | 10 | 28 | 3.2 | 8.0 | 0.00 | 1.45 | 0.00 | 86 | 1013.3 |
| 20260507080003 | 10 | 25 | 3.2 | 6.4 | 0.00 | 1.45 | 0.00 | 86 | 1013.3 |
| 20260507075503 | 10 | 18 | 1.6 | 6.4 | 0.00 | 1.45 | 0.00 | 86 | 1013.2 |
| 20260507075003 | 10 | 16 | 3.2 | 6.4 | 0.00 | 1.45 | 0.00 | 86 | 1013.1 |
| 20260507074503 | 10 | 22 | 3.2 | 6.4 | 0.00 | 1.45 | 0.00 | 85 | 1013.1 |
| 20260507074003 | 10 | 30 | 3.2 | 8.0 | 0.00 | 1.45 | 0.00 | 85 | 1012.9 |
| 20260507073503 | 10 | 34 | 1.6 | 6.4 | 0.00 | 1.45 | 0.00 | 85 | 1013.1 |
| 20260507073003 | 10 | 22 | 1.6 | 6.4 | 0.00 | 1.45 | 0.00 | 85 | 1012.9 |
| 20260507072717 | 10 | 16 | 1.6 | 4.8 | 0.00 | 1.45 | 0.00 | 85 | 1012.8 |
| 20260507072003 | 10 | 20 | 3.2 | 6.4 | 0.00 | 1.45 | 0.00 | 85 | 1012.9 |
| 20260507071503 | 10 | 30 | 3.2 | 6.4 | 0.00 | 1.45 | 0.00 | 84 | 1012.9 |
| 20260507071003 | 10 | 37 | 3.2 | 6.4 | 0.00 | 1.45 | 0.00 | 84 | 1012.7 |
| 20260507070503 | 10 | 28 | 1.6 | 6.4 | 0.00 | 1.45 | 0.00 | 82 | 1012.9 |
| 20260507070005 | 10 | 11 | 1.6 | 6.4 | 0.00 | 1.45 | 0.00 | 82 | 1012.8 |
| 20260507065503 | 10 | 14 | 1.6 | 6.4 | 0.00 | 1.45 | 0.00 | 83 | 1012.7 |
| 20260507065003 | 10 | 28 | 3.2 | 8.0 | 0.00 | 1.45 | 0.00 | 82 | 1012.7 |
| 20260507064503 | 10 | 29 | 3.2 | 8.0 | 0.00 | 1.45 | 0.00 | 83 | 1012.7 |
| 20260507064003 | 10 | 33 | 3.2 | 14.5 | 0.00 | 1.45 | 0.00 | 83 | 1012.5 |
| 20260507063503 | 10 | 32 | 3.2 | 14.5 | 0.00 | 1.45 | 0.00 | 83 | 1012.7 |
| 20260507063218 | 10 | 25 | 3.2 | 8.0 | 0.00 | 1.45 | 0.00 | 83 | 1012.5 |
| 20260507062503 | 10 | 31 | 3.2 | 9.7 | 0.00 | 1.45 | 0.00 | 84 | 1012.6 |
| 20260507062003 | 10 | 43 | 3.2 | 12.9 | 0.00 | 1.45 | 0.00 | 84 | 1012.5 |
| 20260507061503 | 10 | 43 | 1.6 | 6.4 | 0.00 | 1.45 | 0.00 | 85 | 1012.5 |
| 20260507061003 | 10 | 26 | 3.2 | 6.4 | 0.00 | 1.45 | 0.00 | 84 | 1012.7 |
| 20260507060503 | 10 | 32 | 3.2 | 8.0 | 0.00 | 1.45 | 0.00 | 84 | 1012.5 |
| 20260507060218 | 10 | 33 | 3.2 | 9.7 | 0.00 | 1.45 | 0.00 | 85 | 1012.4 |
| 20260507055503 | 10 | 18 | 1.6 | 6.4 | 0.00 | 1.45 | 0.00 | 85 | 1012.4 |
| 20260507055003 | 9 | 22 | 3.2 | 4.8 | 0.00 | 1.45 | 0.00 | 85 | 1012.4 |
| 20260507054503 | 9 | 44 | 1.6 | 4.8 | 0.00 | 1.45 | 0.00 | 86 | 1012.1 |
| 20260507054003 | 9 | 31 | 1.6 | 4.8 | 0.00 | 1.45 | 0.00 | 86 | 1012.0 |
| 20260507053503 | 9 | 7 | 1.6 | 6.4 | 0.00 | 1.45 | 0.00 | 86 | 1012.0 |
| 20260507053003 | 9 | 5 | 1.6 | 4.8 | 0.00 | 1.45 | 0.00 | 87 | 1012.0 |
| 20260507052716 | 9 | 8 | 1.6 | 4.8 | 0.00 | 1.45 | 0.00 | 88 | 1012.0 |
| 20260507052003 | 9 | 23 | 1.6 | 4.8 | 0.00 | 1.45 | 0.00 | 88 | 1011.7 |
| 20260507051503 | 9 | 33 | 3.2 | 9.7 | 0.00 | 1.45 | 0.00 | 88 | 1011.8 |
| 20260507051003 | 9 | 27 | 3.2 | 6.4 | 0.00 | 1.45 | 0.00 | 88 | 1011.8 |
| 20260507050503 | 8 | 27 | 3.2 | 6.4 | 0.00 | 1.45 | 0.00 | 88 | 1011.7 |
| 20260507050003 | 8 | 48 | 1.6 | 6.4 | 0.00 | 1.45 | 0.00 | 88 | 1011.7 |
| 20260507045503 | 8 | 57 | 3.2 | 4.8 | 0.00 | 1.45 | 0.00 | 88 | 1011.5 |
| 20260507045217 | 8 | 53 | 3.2 | 6.4 | 0.00 | 1.45 | 0.00 | 88 | 1011.4 |
| 20260507044503 | 8 | 39 | 3.2 | 4.8 | 0.00 | 1.45 | 0.00 | 88 | 1011.4 |
| 20260507044003 | 8 | 39 | 3.2 | 6.4 | 0.00 | 1.45 | 0.00 | 88 | 1011.5 |
| 20260507043503 | 8 | 46 | 3.2 | 3.2 | 0.00 | 1.45 | 0.00 | 88 | 1011.4 |
| 20260507043217 | 8 | 49 | 3.2 | 4.8 | 0.00 | 1.45 | 0.00 | 88 | 1011.5 |
| 20260507042503 | 8 | 49 | 3.2 | 6.4 | 0.00 | 1.45 | 0.00 | 87 | 1011.4 |
| 20260507042003 | 8 | 52 | 3.2 | 8.0 | 0.00 | 1.45 | 0.00 | 87 | 1011.2 |
| 20260507041503 | 8 | 37 | 1.6 | 4.8 | 0.00 | 1.45 | 0.00 | 88 | 1011.1 |
| 20260507041003 | 8 | 37 | 1.6 | 6.4 | 0.00 | 1.45 | 0.00 | 88 | 1011.0 |
| 20260507040503 | 8 | 49 | 3.2 | 6.4 | 0.00 | 1.45 | 0.00 | 88 | 1011.1 |
| 20260507040003 | 8 | 41 | 3.2 | 6.4 | 0.00 | 1.45 | 0.00 | 88 | 1011.1 |
| 20260507035503 | 8 | 30 | 1.6 | 4.8 | 0.00 | 1.45 | 0.00 | 88 | 1011.1 |
| 20260507035003 | 8 | 33 | 1.6 | 3.2 | 0.00 | 1.45 | 0.00 | 88 | 1010.9 |
| 20260507034503 | 8 | 36 | 3.2 | 8.0 | 0.00 | 1.45 | 0.00 | 88 | 1010.9 |
| 20260507034003 | 8 | 37 | 1.6 | 9.7 | 0.00 | 1.45 | 0.00 | 88 | 1011.1 |
| 20260507033503 | 8 | 27 | 1.6 | 3.2 | 0.00 | 1.45 | 0.00 | 89 | 1011.0 |
| 20260507033003 | 8 | 22 | 1.6 | 6.4 | 0.00 | 1.45 | 0.00 | 89 | 1010.8 |
| 20260507032718 | 8 | 24 | 1.6 | 4.8 | 0.00 | 1.45 | 0.00 | 89 | 1010.9 |
| 20260507032217 | 8 | 11 | 1.6 | 4.8 | 0.00 | 1.45 | 0.00 | 89 | 1010.9 |
| 20260507031503 | 8 | 325 | 1.6 | 6.4 | 0.00 | 1.45 | 0.00 | 90 | 1010.9 |
| 20260507031003 | 8 | 319 | 0.0 | 3.2 | 0.00 | 1.45 | 0.00 | 90 | 1010.9 |
| 20260507030503 | 8 | 322 | 0.0 | 3.2 | 0.00 | 1.45 | 0.00 | 90 | 1010.9 |
| 20260507030216 | 8 | 329 | 0.0 | 3.2 | 0.00 | 1.45 | 0.00 | 90 | 1010.8 |
| 20260507025503 | 8 | 337 | 1.6 | 3.2 | 0.00 | 1.45 | 0.00 | 90 | 1010.8 |
| 20260507025216 | 8 | 332 | 1.6 | 3.2 | 0.00 | 1.45 | 0.00 | 90 | 1010.9 |
| 20260507024503 | 8 | 334 | 0.0 | 3.2 | 0.00 | 1.45 | 0.00 | 90 | 1010.8 |
| 20260507024003 | 8 | 320 | 0.0 | 3.2 | 0.00 | 1.45 | 0.00 | 90 | 1010.7 |
| 20260507023503 | 8 | 317 | 0.0 | 1.6 | 0.00 | 1.45 | 0.00 | 91 | 1011.0 |
| 20260507023216 | 8 | 316 | 0.0 | 3.2 | 0.00 | 1.45 | 0.00 | 91 | 1010.8 |
| 20260507022717 | 8 | 318 | 0.0 | 3.2 | 0.00 | 1.45 | 0.00 | 91 | 1010.8 |
| 20260507022003 | 8 | 69 | 0.0 | 3.2 | 0.00 | 1.45 | 0.00 | 91 | 1010.8 |
| 20260507021503 | 8 | 41 | 0.0 | 1.6 | 0.00 | 1.45 | 0.00 | 92 | 1010.8 |
| 20260507021003 | 8 | 79 | 0.0 | 1.6 | 0.00 | 1.45 | 0.00 | 92 | 1010.8 |
| 20260507020503 | 8 | 92 | 0.0 | 1.6 | 0.00 | 1.45 | 0.00 | 92 | 1010.6 |
| 20260507020003 | 8 | 78 | 0.0 | 1.6 | 0.00 | 1.45 | 0.00 | 91 | 1010.7 |
| 20260507015503 | 8 | 330 | 0.0 | 3.2 | 0.00 | 1.45 | 0.00 | 91 | 1010.7 |
| 20260507015218 | 8 | 291 | 0.0 | 3.2 | 0.00 | 1.45 | 0.00 | 91 | 1010.6 |
| 20260507014503 | 8 | 293 | 1.6 | 3.2 | 0.00 | 1.45 | 0.00 | 91 | 1010.4 |
| 20260507014003 | 8 | 304 | 0.0 | 3.2 | 0.00 | 1.45 | 0.00 | 91 | 1010.7 |
| 20260507013503 | 8 | 314 | 0.0 | 3.2 | 0.00 | 1.45 | 0.00 | 91 | 1010.5 |
| 20260507013003 | 9 | 326 | 0.0 | 3.2 | 0.00 | 1.45 | 0.00 | 90 | 1010.5 |
| 20260507012503 | 9 | 309 | 0.0 | 3.2 | 0.00 | 1.45 | 0.00 | 90 | 1010.5 |
| 20260507012003 | 9 | 302 | 0.0 | 3.2 | 0.00 | 1.45 | 0.00 | 90 | 1010.5 |
| 20260507011503 | 9 | 306 | 0.0 | 3.2 | 0.00 | 1.45 | 0.00 | 90 | 1010.4 |
| 20260507011003 | 9 | 297 | 0.0 | 3.2 | 0.00 | 1.45 | 0.00 | 90 | 1010.6 |
| 20260507010503 | 9 | 305 | 1.6 | 3.2 | 0.00 | 1.45 | 0.00 | 90 | 1010.6 |
| 20260507010003 | 9 | 315 | 0.0 | 4.8 | 0.00 | 1.45 | 0.00 | 89 | 1010.4 |
| 20260507005503 | 9 | 307 | 0.0 | 3.2 | 0.00 | 1.45 | 0.00 | 89 | 1010.5 |
| 20260507005003 | 9 | 318 | 0.0 | 3.2 | 0.00 | 1.45 | 0.00 | 88 | 1010.5 |
| 20260507004503 | 9 | 347 | 0.0 | 3.2 | 0.00 | 1.45 | 0.00 | 88 | 1010.4 |
| 20260507004003 | 10 | 349 | 0.0 | 3.2 | 0.00 | 1.45 | 0.00 | 88 | 1010.6 |
| 20260507003503 | 10 | 351 | 1.6 | 3.2 | 0.00 | 1.45 | 0.00 | 88 | 1010.5 |
| 20260507003003 | 10 | 356 | 1.6 | 4.8 | 0.00 | 1.45 | 0.00 | 88 | 1010.4 |
| 20260507002503 | 10 | 348 | 1.6 | 4.8 | 0.00 | 1.45 | 0.00 | 88 | 1010.3 |
| 20260507002003 | 10 | 346 | 1.6 | 3.2 | 0.00 | 1.45 | 0.00 | 88 | 1010.5 |
| 20260507001503 | 10 | 340 | 0.0 | 4.8 | 0.00 | 1.45 | 0.00 | 88 | 1010.5 |
| 20260507001003 | 10 | 314 | 1.6 | 3.2 | 0.00 | 1.45 | 0.00 | 88 | 1010.5 |
| 20260507000503 | 10 | 324 | 1.6 | 3.2 | 0.00 | 1.45 | 0.00 | 88 | 1010.5 |
| 20260507000003 | 10 | 1 | 1.6 | 3.2 | 0.00 | 1.45 | 0.00 | 88 | 1010.5 |
| 20260506235503 | 10 | 10 | 0.0 | 3.2 | 0.00 | 1.45 | 0.00 | 88 | 1010.4 |
| 20260506235003 | 10 | 353 | 0.0 | 3.2 | 0.00 | 1.45 | 0.00 | 88 | 1010.5 |
| 20260506234503 | 10 | 8 | 0.0 | 3.2 | 0.00 | 1.45 | 0.00 | 89 | 1010.4 |
| 20260506234217 | 10 | 3 | 0.0 | 3.2 | 0.00 | 1.45 | 0.00 | 89 | 1010.5 |
| 20260506233718 | 10 | 350 | 0.0 | 3.2 | 0.00 | 1.45 | 0.00 | 88 | 1010.2 |
| 20260506233003 | 10 | 337 | 0.0 | 3.2 | 0.00 | 1.45 | 0.00 | 88 | 1010.3 |
| 20260506232503 | 10 | 345 | 0.0 | 1.6 | 0.00 | 1.45 | 0.00 | 88 | 1010.4 |
| 20260506232003 | 10 | 25 | 1.6 | 4.8 | 0.00 | 1.45 | 0.00 | 88 | 1010.4 |
| 20260506231503 | 10 | 60 | 1.6 | 3.2 | 0.00 | 1.45 | 0.00 | 88 | 1010.3 |
| 20260506231003 | 10 | 50 | 1.6 | 4.8 | 0.00 | 1.45 | 0.00 | 88 | 1010.5 |
| 20260506230503 | 10 | 46 | 1.6 | 4.8 | 0.00 | 1.45 | 0.00 | 88 | 1010.4 |
| 20260506230003 | 10 | 74 | 0.0 | 3.2 | 0.00 | 1.45 | 0.00 | 89 | 1010.2 |
| 20260506225503 | 10 | 63 | 1.6 | 4.8 | 0.00 | 1.45 | 0.00 | 88 | 1010.2 |
| 20260506225003 | 10 | 29 | 1.6 | 3.2 | 0.00 | 1.45 | 0.00 | 87 | 1010.2 |
| 20260506224503 | 10 | 30 | 1.6 | 4.8 | 0.00 | 1.45 | 0.00 | 86 | 1010.3 |
| 20260506224003 | 10 | 53 | 1.6 | 4.8 | 0.00 | 1.45 | 0.00 | 86 | 1010.2 |
| 20260506223503 | 10 | 43 | 3.2 | 6.4 | 0.00 | 1.45 | 0.00 | 86 | 1010.4 |
| 20260506223003 | 10 | 25 | 3.2 | 8.0 | 0.00 | 1.45 | 0.00 | 85 | 1010.2 |
| 20260506222503 | 10 | 33 | 3.2 | 6.4 | 0.00 | 1.45 | 0.00 | 85 | 1009.9 |
| 20260506222217 | 10 | 40 | 1.6 | 8.0 | 0.00 | 1.45 | 0.00 | 86 | 1010.1 |
| 20260506221504 | 10 | 36 | 3.2 | 6.4 | 0.00 | 1.45 | 0.00 | 85 | 1009.8 |
| 20260506221003 | 10 | 32 | 3.2 | 6.4 | 0.00 | 1.45 | 0.00 | 86 | 1010.1 |
| 20260506220503 | 10 | 35 | 3.2 | 9.7 | 0.00 | 1.45 | 0.00 | 85 | 1009.9 |
| 20260506220003 | 11 | 32 | 3.2 | 6.4 | 0.00 | 1.45 | 0.00 | 85 | 1009.9 |
| 20260506215503 | 11 | 41 | 3.2 | 6.4 | 0.00 | 1.45 | 1.45 | 85 | 1010.0 |
| 20260506215003 | 11 | 40 | 3.2 | 8.0 | 0.00 | 1.45 | 1.45 | 85 | 1010.0 |
| 20260506214503 | 11 | 27 | 3.2 | 8.0 | 0.00 | 1.45 | 1.45 | 85 | 1009.8 |
| 20260506214216 | 11 | 22 | 1.6 | 4.8 | 0.00 | 1.45 | 1.45 | 85 | 1009.9 |
| 20260506213503 | 11 | 30 | 3.2 | 8.0 | 0.00 | 1.45 | 1.45 | 85 | 1009.6 |
| 20260506213003 | 11 | 35 | 3.2 | 6.4 | 0.00 | 1.45 | 1.45 | 84 | 1009.9 |
| 20260506212503 | 11 | 34 | 3.2 | 8.0 | 0.00 | 1.45 | 1.45 | 85 | 1009.8 |
| 20260506212216 | 11 | 44 | 3.2 | 8.0 | 0.00 | 1.45 | 1.45 | 86 | 1009.8 |
| 20260506211717 | 11 | 48 | 3.2 | 4.8 | 0.00 | 1.45 | 1.45 | 87 | 1009.8 |
| 20260506211003 | 11 | 38 | 3.2 | 6.4 | 0.00 | 1.45 | 1.45 | 87 | 1009.5 |
| 20260506210503 | 11 | 31 | 3.2 | 8.0 | 0.00 | 1.45 | 1.45 | 88 | 1009.5 |
| 20260506210003 | 11 | 18 | 3.2 | 14.5 | 0.00 | 1.45 | 1.45 | 88 | 1009.4 |
| 20260506205503 | 11 | 31 | 3.2 | 4.8 | 0.00 | 1.45 | 1.45 | 89 | 1009.4 |
| 20260506205003 | 11 | 39 | 1.6 | 8.0 | 0.00 | 1.45 | 1.45 | 89 | 1009.3 |
| 20260506204503 | 11 | 42 | 1.6 | 8.0 | 0.00 | 1.45 | 1.45 | 89 | 1009.4 |
| 20260506204003 | 11 | 42 | 3.2 | 8.0 | 0.00 | 1.45 | 1.45 | 89 | 1009.2 |
| 20260506203503 | 11 | 30 | 1.6 | 6.4 | 0.00 | 1.45 | 1.45 | 89 | 1009.3 |
| 20260506203003 | 11 | 33 | 1.6 | 6.4 | 0.00 | 1.45 | 1.45 | 90 | 1009.3 |
| 20260506202503 | 11 | 44 | 3.2 | 8.0 | 0.00 | 1.45 | 1.45 | 90 | 1009.2 |
| 20260506202003 | 11 | 37 | 1.6 | 4.8 | 0.00 | 1.45 | 1.45 | 90 | 1009.0 |
| 20260506201503 | 11 | 28 | 1.6 | 4.8 | 0.00 | 1.45 | 1.45 | 90 | 1009.0 |
| 20260506201003 | 11 | 31 | 3.2 | 9.7 | 0.00 | 1.45 | 1.45 | 90 | 1009.1 |
| 20260506200503 | 11 | 44 | 1.6 | 6.4 | 0.00 | 1.45 | 1.45 | 89 | 1009.0 |
| 20260506200003 | 11 | 50 | 3.2 | 4.8 | 0.00 | 1.45 | 1.45 | 89 | 1009.0 |
| 20260506195503 | 11 | 50 | 4.8 | 9.7 | 0.00 | 1.45 | 1.45 | 88 | 1009.2 |
| 20260506195218 | 11 | 51 | 4.8 | 9.7 | 0.00 | 1.45 | 1.45 | 88 | 1009.0 |
| 20260506194503 | 11 | 49 | 3.2 | 9.7 | 0.00 | 1.45 | 1.45 | 87 | 1008.9 |
| 20260506194003 | 11 | 68 | 4.8 | 8.0 | 0.00 | 1.45 | 1.45 | 87 | 1009.0 |
| 20260506193503 | 11 | 75 | 3.2 | 9.7 | 0.00 | 1.45 | 1.45 | 87 | 1009.0 |
| 20260506193003 | 12 | 72 | 3.2 | 8.0 | 0.00 | 1.45 | 1.45 | 89 | 1009.2 |
| 20260506192503 | 12 | 63 | 1.6 | 6.4 | 0.00 | 1.45 | 1.45 | 89 | 1008.7 |
| 20260506192003 | 12 | 56 | 1.6 | 3.2 | 0.00 | 1.45 | 1.45 | 89 | 1008.8 |
| 20260506191503 | 12 | 57 | 1.6 | 6.4 | 0.00 | 1.45 | 1.45 | 88 | 1008.7 |
| 20260506191003 | 12 | 53 | 3.2 | 6.4 | 0.00 | 1.45 | 1.45 | 88 | 1008.7 |
| 20260506190503 | 12 | 54 | 3.2 | 11.3 | 0.00 | 1.45 | 1.45 | 88 | 1008.6 |
| 20260506190003 | 12 | 54 | 3.2 | 8.0 | 0.00 | 1.45 | 1.45 | 88 | 1008.6 |
| 20260506185716 | 12 | 55 | 3.2 | 8.0 | 0.00 | 1.45 | 1.45 | 89 | 1008.5 |
| 20260506185003 | 12 | 64 | 3.2 | 8.0 | 0.00 | 1.45 | 1.45 | 89 | 1008.4 |
| 20260506184503 | 12 | 70 | 1.6 | 4.8 | 0.00 | 1.45 | 1.45 | 89 | 1008.3 |
| 20260506184003 | 12 | 63 | 1.6 | 4.8 | 0.00 | 1.45 | 1.45 | 89 | 1008.0 |
| 20260506183716 | 12 | 52 | 1.6 | 4.8 | 0.00 | 1.45 | 1.45 | 89 | 1008.0 |
| 20260506183003 | 12 | 358 | 1.6 | 3.2 | 0.00 | 1.45 | 1.45 | 90 | 1008.1 |
| 20260506182503 | 12 | 356 | 1.6 | 4.8 | 0.00 | 1.45 | 1.45 | 91 | 1007.9 |
| 20260506182003 | 12 | 6 | 1.6 | 4.8 | 0.00 | 1.45 | 1.45 | 91 | 1007.5 |
| 20260506181503 | 12 | 10 | 1.6 | 4.8 | 0.00 | 1.45 | 1.45 | 91 | 1007.7 |
| 20260506181003 | 12 | 6 | 1.6 | 3.2 | 0.03 | 1.45 | 1.45 | 91 | 1007.6 |
| 20260506180503 | 12 | 11 | 1.6 | 3.2 | 0.18 | 1.45 | 1.45 | 91 | 1007.3 |
| 20260506180217 | 12 | 17 | 1.6 | 3.2 | 0.30 | 1.45 | 1.45 | 91 | 1007.4 |
| 20260506175503 | 12 | 28 | 1.6 | 4.8 | 0.94 | 1.45 | 1.45 | 91 | 1007.5 |
| 20260506175217 | 12 | 19 | 1.6 | 9.7 | 1.22 | 1.45 | 1.45 | 91 | 1007.3 |
| 20260506174503 | 12 | 7 | 1.6 | 3.2 | 1.45 | 1.45 | 1.45 | 92 | 1007.4 |
| 20260506174217 | 12 | 355 | 1.6 | 3.2 | 1.45 | 1.45 | 1.45 | 92 | 1006.9 |
| 20260506173503 | 11 | 328 | 1.6 | 6.4 | 1.45 | 1.45 | 1.45 | 92 | 1006.6 |
| 20260506173003 | 11 | 329 | 1.6 | 4.8 | 1.45 | 1.45 | 1.45 | 91 | 1006.6 |
| 20260506172718 | 11 | 322 | 3.2 | 4.8 | 1.45 | 1.45 | 1.45 | 91 | 1006.7 |
| 20260506172003 | 11 | 327 | 3.2 | 9.7 | 1.45 | 1.45 | 1.45 | 90 | 1006.3 |
| 20260506171503 | 11 | 328 | 3.2 | 4.8 | 1.45 | 1.45 | 1.45 | 89 | 1006.3 |
| 20260506171003 | 11 | 334 | 4.8 | 9.7 | 1.42 | 1.42 | 1.42 | 88 | 1006.1 |
| 20260506170503 | 11 | 1 | 4.8 | 8.0 | 1.27 | 1.27 | 1.27 | 85 | 1006.2 |
| 20260506170003 | 11 | 15 | 4.8 | 19.3 | 1.02 | 1.02 | 1.02 | 83 | 1006.5 |
| 20260506165503 | 12 | 55 | 4.8 | 14.5 | 0.51 | 0.51 | 0.51 | 81 | 1006.4 |
| 20260506165003 | 14 | 63 | 6.4 | 16.1 | 0.08 | 0.08 | 0.10 | 69 | 1006.5 |
| 20260506164718 | 15 | 48 | 4.8 | 17.7 | 0.00 | 0.00 | 0.00 | 60 | 1006.5 |
| 20260506164003 | 17 | 328 | 3.2 | 11.3 | 0.00 | 0.00 | 0.00 | 60 | 1005.4 |
| 20260506163717 | 17 | 329 | 3.2 | 9.7 | 0.00 | 0.00 | 0.00 | 57 | 1005.3 |
| 20260506163003 | 17 | 333 | 3.2 | 8.0 | 0.00 | 0.00 | 0.00 | 57 | 1005.2 |
| 20260506162503 | 18 | 345 | 3.2 | 9.7 | 0.00 | 0.00 | 0.00 | 56 | 1005.1 |
| 20260506162003 | 18 | 4 | 1.6 | 4.8 | 0.00 | 0.00 | 0.00 | 56 | 1005.1 |
| 20260506161503 | 18 | 352 | 3.2 | 8.0 | 0.00 | 0.00 | 0.00 | 55 | 1004.9 |
| 20260506161003 | 19 | 360 | 1.6 | 8.0 | 0.00 | 0.00 | 0.00 | 52 | 1004.9 |
| 20260506160503 | 20 | 48 | 1.6 | 3.2 | 0.00 | 0.00 | 0.00 | 44 | 1004.9 |
| 20260506160003 | 20 | 64 | 1.6 | 4.8 | 0.00 | 0.00 | 0.00 | 43 | 1004.9 |
| 20260506155503 | 21 | 68 | 1.6 | 8.0 | 0.00 | 0.00 | 0.00 | 41 | 1004.7 |
| 20260506155003 | 22 | 13 | 1.6 | 4.8 | 0.00 | 0.00 | 0.00 | 39 | 1004.7 |
| 20260506154503 | 20 | 329 | 1.6 | 3.2 | 0.00 | 0.00 | 0.00 | 41 | 1004.3 |
| 20260506154003 | 19 | 49 | 1.6 | 3.2 | 0.00 | 0.00 | 0.00 | 43 | 1004.3 |
| 20260506153503 | 18 | 47 | 3.2 | 6.4 | 0.00 | 0.00 | 0.00 | 45 | 1004.1 |
| 20260506153003 | 19 | 51 | 3.2 | 4.8 | 0.00 | 0.00 | 0.00 | 44 | 1004.9 |
| 20260506152503 | 20 | 64 | 1.6 | 6.4 | 0.00 | 0.00 | 0.00 | 43 | 1004.9 |
| 20260506152218 | 20 | 70 | 1.6 | 6.4 | 0.00 | 0.00 | 0.00 | 42 | 1005.0 |
| 20260506151503 | 19 | 54 | 1.6 | 4.8 | 0.00 | 0.00 | 0.00 | 44 | 1004.8 |
| 20260506151003 | 19 | 50 | 1.6 | 6.4 | 0.00 | 0.00 | 0.00 | 44 | 1004.9 |
| 20260506150503 | 19 | 70 | 1.6 | 4.8 | 0.00 | 0.00 | 0.00 | 44 | 1005.0 |
| 20260506150003 | 19 | 72 | 1.6 | 3.2 | 0.00 | 0.00 | 0.00 | 44 | 1004.8 |
| 20260506145503 | 19 | 64 | 1.6 | 3.2 | 0.00 | 0.00 | 0.00 | 44 | 1004.8 |
| 20260506145003 | 19 | 52 | 1.6 | 3.2 | 0.00 | 0.00 | 0.00 | 44 | 1005.0 |
| 20260506144503 | 19 | 74 | 1.6 | 3.2 | 0.00 | 0.00 | 0.00 | 45 | 1005.1 |
| 20260506144003 | 19 | 75 | 1.6 | 4.8 | 0.00 | 0.00 | 0.00 | 44 | 1004.8 |
| 20260506143503 | 19 | 72 | 1.6 | 3.2 | 0.00 | 0.00 | 0.00 | 44 | 1004.9 |
| 20260506143003 | 20 | 66 | 1.6 | 4.8 | 0.00 | 0.00 | 0.00 | 43 | 1004.9 |
| 20260506142717 | 20 | 56 | 0.0 | 4.8 | 0.00 | 0.00 | 0.00 | 43 | 1005.2 |
| 20260506142003 | 20 | 68 | 1.6 | 3.2 | 0.00 | 0.00 | 0.00 | 44 | 1005.0 |
| 20260506141503 | 19 | 67 | 1.6 | 4.8 | 0.00 | 0.00 | 0.00 | 44 | 1004.9 |
| 20260506141003 | 19 | 69 | 3.2 | 4.8 | 0.00 | 0.00 | 0.00 | 44 | 1005.2 |
| 20260506140717 | 20 | 66 | 1.6 | 4.8 | 0.00 | 0.00 | 0.00 | 44 | 1005.1 |
| 20260506140003 | 19 | 78 | 3.2 | 4.8 | 0.00 | 0.00 | 0.00 | 43 | 1005.0 |
| 20260506135503 | 19 | 86 | 3.2 | 6.4 | 0.00 | 0.00 | 0.00 | 44 | 1005.3 |
| 20260506135003 | 20 | 108 | 1.6 | 6.4 | 0.00 | 0.00 | 0.00 | 44 | 1005.1 |
| 20260506134503 | 20 | 126 | 1.6 | 4.8 | 0.00 | 0.00 | 0.00 | 43 | 1005.1 |
| 20260506134003 | 20 | 95 | 1.6 | 3.2 | 0.00 | 0.00 | 0.00 | 40 | 1005.1 |
| 20260506133716 | 20 | 84 | 1.6 | 3.2 | 0.00 | 0.00 | 0.00 | 42 | 1005.0 |
| 20260506133003 | 20 | 127 | 3.2 | 6.4 | 0.00 | 0.00 | 0.00 | 42 | 1005.2 |
| 20260506132503 | 20 | 126 | 1.6 | 6.4 | 0.00 | 0.00 | 0.00 | 44 | 1005.2 |
| 20260506132003 | 20 | 110 | 1.6 | 6.4 | 0.00 | 0.00 | 0.00 | 44 | 1005.2 |
| 20260506131503 | 20 | 87 | 3.2 | 6.4 | 0.00 | 0.00 | 0.00 | 44 | 1005.2 |
| 20260506131003 | 20 | 76 | 1.6 | 8.0 | 0.00 | 0.00 | 0.00 | 44 | 1005.3 |
| 20260506130503 | 19 | 68 | 1.6 | 4.8 | 0.00 | 0.00 | 0.00 | 47 | 1005.3 |
| 20260506130003 | 19 | 75 | 3.2 | 6.4 | 0.00 | 0.00 | 0.00 | 47 | 1005.4 |
| 20260506125503 | 19 | 76 | 3.2 | 9.7 | 0.00 | 0.00 | 0.00 | 47 | 1005.2 |
| 20260506125217 | 20 | 80 | 3.2 | 8.0 | 0.00 | 0.00 | 0.00 | 48 | 1005.4 |
| 20260506124503 | 20 | 92 | 3.2 | 4.8 | 0.00 | 0.00 | 0.00 | 48 | 1005.4 |
| 20260506124003 | 19 | 99 | 3.2 | 8.0 | 0.00 | 0.00 | 0.00 | 49 | 1005.4 |
| 20260506123718 | 20 | 87 | 1.6 | 8.0 | 0.00 | 0.00 | 0.00 | 48 | 1005.6 |
| 20260506123003 | 18 | 98 | 1.6 | 8.0 | 0.00 | 0.00 | 0.00 | 51 | 1005.5 |
| 20260506122503 | 18 | 126 | 1.6 | 6.4 | 0.00 | 0.00 | 0.00 | 52 | 1005.6 |
| 20260506122217 | 18 | 93 | 1.6 | 4.8 | 0.00 | 0.00 | 0.00 | 52 | 1005.8 |
| 20260506121503 | 18 | 105 | 1.6 | 6.4 | 0.00 | 0.00 | 0.00 | 52 | 1005.8 |
| 20260506121003 | 18 | 124 | 1.6 | 6.4 | 0.00 | 0.00 | 0.00 | 52 | 1005.6 |
| 20260506120503 | 18 | 137 | 1.6 | 6.4 | 0.00 | 0.00 | 0.00 | 51 | 1005.6 |
| 20260506120003 | 18 | 143 | 1.6 | 6.4 | 0.00 | 0.00 | 0.00 | 53 | 1005.6 |
| 20260506115503 | 17 | 98 | 1.6 | 3.2 | 0.00 | 0.00 | 0.00 | 53 | 1005.5 |
| 20260506115217 | 17 | 94 | 1.6 | 3.2 | 0.00 | 0.00 | 0.00 | 54 | 1005.7 |
| 20260506114503 | 18 | 119 | 1.6 | 3.2 | 0.00 | 0.00 | 0.00 | 52 | 1005.6 |
| 20260506114003 | 18 | 105 | 1.6 | 6.4 | 0.00 | 0.00 | 0.00 | 51 | 1005.9 |
| 20260506113503 | 18 | 97 | 1.6 | 6.4 | 0.00 | 0.00 | 0.00 | 50 | 1006.0 |
| 20260506113003 | 18 | 87 | 1.6 | 8.0 | 0.00 | 0.00 | 0.00 | 50 | 1006.1 |
| 20260506112718 | 19 | 79 | 1.6 | 6.4 | 0.00 | 0.00 | 0.00 | 50 | 1006.1 |
| 20260506112003 | 17 | 90 | 1.6 | 4.8 | 0.00 | 0.00 | 0.00 | 53 | 1006.3 |
| 20260506111503 | 17 | 154 | 1.6 | 4.8 | 0.00 | 0.00 | 0.00 | 54 | 1006.2 |
| 20260506111003 | 18 | 203 | 1.6 | 6.4 | 0.00 | 0.00 | 0.00 | 53 | 1006.2 |
| 20260506110717 | 18 | 249 | 1.6 | 3.2 | 0.00 | 0.00 | 0.00 | 53 | 1006.3 |
| 20260506110003 | 18 | 246 | 1.6 | 4.8 | 0.00 | 0.00 | 0.00 | 53 | 1006.3 |
| 20260506105717 | 17 | 255 | 1.6 | 3.2 | 0.00 | 0.00 | 0.00 | 55 | 1006.3 |
| 20260506105216 | 17 | 295 | 1.6 | 6.4 | 0.00 | 0.00 | 0.00 | 57 | 1006.5 |
| 20260506104503 | 18 | 13 | 1.6 | 8.0 | 0.00 | 0.00 | 0.00 | 58 | 1006.4 |
| 20260506104003 | 17 | 24 | 1.6 | 3.2 | 0.00 | 0.00 | 0.00 | 55 | 1006.5 |
| 20260506103717 | 17 | 38 | 1.6 | 3.2 | 0.00 | 0.00 | 0.00 | 55 | 1006.3 |
| 20260506103003 | 18 | 47 | 1.6 | 6.4 | 0.00 | 0.00 | 0.00 | 54 | 1006.7 |
| 20260506102503 | 17 | 23 | 1.6 | 4.8 | 0.00 | 0.00 | 0.00 | 54 | 1006.5 |
| 20260506102003 | 17 | 23 | 3.2 | 8.0 | 0.00 | 0.00 | 0.00 | 56 | 1006.6 |
| 20260506101503 | 18 | 16 | 1.6 | 6.4 | 0.00 | 0.00 | 0.00 | 55 | 1006.6 |
| 20260506101003 | 18 | 352 | 1.6 | 3.2 | 0.00 | 0.00 | 0.00 | 53 | 1006.7 |
| 20260506100503 | 17 | 8 | 1.6 | 4.8 | 0.00 | 0.00 | 0.00 | 55 | 1006.7 |
| 20260506100003 | 17 | 27 | 1.6 | 6.4 | 0.00 | 0.00 | 0.00 | 55 | 1006.9 |
| 20260506095503 | 17 | 349 | 1.6 | 3.2 | 0.00 | 0.00 | 0.00 | 56 | 1006.8 |
| 20260506095003 | 16 | 322 | 1.6 | 3.2 | 0.00 | 0.00 | 0.00 | 57 | 1007.0 |
| 20260506094503 | 16 | 335 | 1.6 | 3.2 | 0.00 | 0.00 | 0.00 | 59 | 1006.7 |
| 20260506094218 | 16 | 341 | 1.6 | 4.8 | 0.00 | 0.00 | 0.00 | 59 | 1006.8 |